createdAt,value
2019-01-13T00:01:09.821Z,26.4
2019-01-13T00:04:07.225Z,26.4
2019-01-13T00:07:04.300Z,26.4
2019-01-13T00:10:01.129Z,26.4
2019-01-13T00:18:52.695Z,26.3
2019-01-13T00:21:49.149Z,26.2
2019-01-13T00:24:46.335Z,26.2
2019-01-13T00:27:43.121Z,26.1
2019-01-13T00:30:39.894Z,26.1
2019-01-13T00:36:34.309Z,26
2019-01-13T00:39:30.717Z,26
2019-01-13T00:42:27.931Z,26
2019-01-13T00:48:22.580Z,26
2019-01-13T00:54:16.361Z,26
2019-01-13T00:57:13.159Z,26
2019-01-13T01:09:01.015Z,26
2019-01-13T01:14:55.524Z,26.2
2019-01-13T01:20:48.966Z,26.3
2019-01-13T01:29:39.928Z,26.4
2019-01-13T01:35:34.103Z,26.5
2019-01-13T01:47:22.402Z,26.7
2019-01-13T01:50:18.838Z,26.8
2019-01-13T01:53:16.696Z,26.8
2019-01-13T01:56:13.277Z,26.8
2019-01-13T02:02:07.081Z,27.2
2019-01-13T02:05:03.903Z,27.3
2019-01-13T02:13:55.593Z,27.7
2019-01-13T02:19:49.401Z,27.9
2019-01-13T02:22:46.312Z,27.9
2019-01-13T02:28:40.092Z,28
2019-01-13T02:31:36.884Z,28
2019-01-13T02:40:28.131Z,27.9
2019-01-13T02:43:24.836Z,28
2019-01-13T02:49:19.512Z,28.2
2019-01-13T02:52:15.899Z,28.3
2019-01-13T02:58:10.352Z,28.5
2019-01-13T03:01:06.946Z,28.6
2019-01-13T03:09:58.543Z,28.7
2019-01-13T03:12:54.922Z,28.7
2019-01-13T03:15:52.056Z,28.8
2019-01-13T03:18:49.449Z,28.9
2019-01-13T03:27:40.168Z,29
2019-01-13T03:30:36.936Z,29
2019-01-13T03:36:31.764Z,29.2
2019-01-13T03:39:27.957Z,29.2
2019-01-13T03:45:22.347Z,29.2
2019-01-13T03:48:18.994Z,29.1
2019-01-13T03:51:16.148Z,29
2019-01-13T03:54:13.119Z,29.1
2019-01-13T03:57:10.129Z,29.1
2019-01-13T04:00:06.973Z,29.1
2019-01-13T04:06:01.393Z,29.2
2019-01-13T04:08:58.097Z,29.2
2019-01-13T04:11:55.293Z,29.1
2019-01-13T04:14:52.084Z,29.1
2019-01-13T04:17:49.204Z,29.1
2019-01-13T04:23:43.720Z,29.2
2019-01-13T04:29:37.206Z,29.3
2019-01-13T04:32:34.043Z,29.4
2019-01-13T04:35:31.218Z,29.4
2019-01-13T04:38:28.032Z,29.5
2019-01-13T04:41:25.326Z,29.6
2019-01-13T04:44:22.073Z,29.5
2019-01-13T04:47:19.271Z,29.6
2019-01-13T04:50:16.082Z,29.7
2019-01-13T04:53:13.219Z,29.9
2019-01-13T04:56:10.088Z,30
2019-01-13T05:07:58.882Z,30
2019-01-13T05:10:55.108Z,30.1
2019-01-13T05:19:46.712Z,30.3
2019-01-13T05:22:43.156Z,30.4
2019-01-13T05:25:40.318Z,30.4
2019-01-13T05:28:37.592Z,30.4
2019-01-13T05:31:41.714Z,30.4
2019-01-13T05:37:28.822Z,30.2
2019-01-13T05:40:25.125Z,30.3
2019-01-13T05:43:22.264Z,30.4
2019-01-13T05:46:19.266Z,30.4
2019-01-13T05:49:16.300Z,30.4
2019-01-13T05:52:13.146Z,30.4
2019-01-13T05:55:10.827Z,30.4
2019-01-13T05:58:07.657Z,30.4
2019-01-13T06:01:04.314Z,30.3
2019-01-13T06:04:01.659Z,30.3
2019-01-13T06:06:58.408Z,30.4
2019-01-13T06:09:55.167Z,30.4
2019-01-13T06:12:52.505Z,30.4
2019-01-13T06:15:49.277Z,30.4
2019-01-13T06:18:46.346Z,30.3
2019-01-13T06:21:43.722Z,30.3
2019-01-13T06:24:40.349Z,30.3
2019-01-13T06:27:37.238Z,30.3
2019-01-13T06:30:34.448Z,30.4
2019-01-13T06:33:31.614Z,30.4
2019-01-13T06:39:25.880Z,30.3
2019-01-13T06:48:16.460Z,30.2
2019-01-13T06:54:10.808Z,30.3
2019-01-13T07:00:04.473Z,30.3
2019-01-13T07:05:58.428Z,30.3
2019-01-13T07:11:52.539Z,30.4
2019-01-13T07:14:49.743Z,30.4
2019-01-13T07:17:46.497Z,30.4
2019-01-13T07:26:38.005Z,30.4
2019-01-13T07:29:34.800Z,30.4
2019-01-13T07:32:31.999Z,30.4
2019-01-13T07:41:22.531Z,30.4
2019-01-13T07:44:19.398Z,30.4
2019-01-13T07:47:16.504Z,30.4
2019-01-13T07:50:13.345Z,30.4
2019-01-13T07:53:10.589Z,30.4
2019-01-13T07:56:07.744Z,30.4
2019-01-13T07:59:04.989Z,30.4
2019-01-13T08:07:55.651Z,30.4
2019-01-13T08:10:52.360Z,30.3
2019-01-13T08:13:50.165Z,30.3
2019-01-13T08:16:46.791Z,30.3
2019-01-13T08:19:43.700Z,30.2
2019-01-13T08:22:40.889Z,30.3
2019-01-13T08:25:38.071Z,30.2
2019-01-13T08:28:34.383Z,30.2
2019-01-13T08:31:32.023Z,30.2
2019-01-13T08:34:28.395Z,30.2
2019-01-13T08:43:19.597Z,30.2
2019-01-13T08:49:13.979Z,30.2
2019-01-13T08:52:10.542Z,30.1
2019-01-13T08:55:08.693Z,30.1
2019-01-13T08:58:04.409Z,30.1
2019-01-13T09:03:58.793Z,30.2
2019-01-13T09:06:55.508Z,30.4
2019-01-13T09:18:44.076Z,30.3
2019-01-13T09:21:40.453Z,30.2
2019-01-13T09:24:38.356Z,30.3
2019-01-13T09:27:34.896Z,30.3
2019-01-13T09:30:32.055Z,30.3
2019-01-13T09:33:28.584Z,30.3
2019-01-13T09:36:25.738Z,30.2
2019-01-13T09:39:22.626Z,30.2
2019-01-13T09:42:20.120Z,30.2
2019-01-13T09:45:16.973Z,30.2
2019-01-13T09:48:14.087Z,30.2
2019-01-13T09:51:10.502Z,30.1
2019-01-13T09:54:08.095Z,30.1
2019-01-13T09:57:04.515Z,30.1
2019-01-13T10:00:01.732Z,30
2019-01-13T10:02:58.940Z,30
2019-01-13T10:05:55.739Z,30
2019-01-13T10:08:52.989Z,29.9
2019-01-13T10:11:50.191Z,29.9
2019-01-13T10:14:46.948Z,29.8
2019-01-13T10:23:38.202Z,29.7
2019-01-13T10:29:31.834Z,29.6
2019-01-13T10:32:28.615Z,29.6
2019-01-13T10:35:25.722Z,29.6
2019-01-13T10:38:23.105Z,29.5
2019-01-13T10:44:17.225Z,29.5
2019-01-13T10:50:10.759Z,29.4
2019-01-13T10:56:05.254Z,29.4
2019-01-13T11:01:58.766Z,29.3
2019-01-13T11:04:56.000Z,29.3
2019-01-13T11:07:53.292Z,29.2
2019-01-13T11:10:49.615Z,29.2
2019-01-13T11:13:46.754Z,29.2
2019-01-13T11:28:31.869Z,29.1
2019-01-13T11:37:22.939Z,29
2019-01-13T11:46:14.283Z,29
2019-01-13T11:58:01.903Z,28.9
2019-01-13T12:00:59.111Z,28.9
2019-01-13T12:03:55.848Z,28.9
2019-01-13T12:09:50.076Z,28.8
2019-01-13T12:12:47.134Z,28.8
2019-01-13T12:15:44.318Z,28.8
2019-01-13T12:18:40.905Z,28.8
2019-01-13T12:27:31.969Z,28.8
2019-01-13T12:30:28.795Z,28.7
2019-01-13T12:33:25.902Z,28.7
2019-01-13T12:36:22.779Z,28.7
2019-01-13T12:48:11.521Z,28.6
2019-01-13T12:51:07.793Z,28.6
2019-01-13T12:57:02.067Z,28.6
2019-01-13T13:02:57.460Z,28.5
2019-01-13T13:17:41.162Z,28.5
2019-01-13T13:20:37.948Z,28.4
2019-01-13T13:23:35.104Z,28.4
2019-01-13T13:29:29.027Z,28.4
2019-01-13T13:35:23.439Z,28.4
2019-01-13T13:38:20.413Z,28.4
2019-01-13T13:41:17.006Z,28.4
2019-01-13T13:56:02.692Z,28.3
2019-01-13T13:58:58.860Z,28.4
2019-01-13T14:01:56.111Z,28.4
2019-01-13T14:04:53.567Z,28.4
2019-01-13T14:07:50.593Z,28.4
2019-01-13T14:10:47.014Z,28.4
2019-01-13T14:16:41.477Z,28.3
2019-01-13T14:22:35.156Z,28.4
2019-01-13T14:31:26.140Z,28.3
2019-01-13T14:34:23.314Z,28.3
2019-01-13T14:46:11.216Z,28.3
2019-01-13T14:49:07.943Z,28.4
2019-01-13T14:55:02.644Z,28.3
2019-01-13T14:57:58.970Z,28.3
2019-01-13T15:00:56.233Z,28.4
2019-01-13T15:03:59.738Z,28.3
2019-01-13T15:06:50.206Z,28.3
2019-01-13T15:12:44.250Z,28.3
2019-01-13T15:18:38.240Z,28.3
2019-01-13T15:21:35.002Z,28.4
2019-01-13T15:33:23.666Z,28.3
2019-01-13T15:39:17.189Z,28.3
2019-01-13T15:42:14.013Z,28.3
2019-01-13T15:45:11.320Z,28.3
2019-01-13T15:48:08.012Z,28.3
2019-01-13T15:51:05.218Z,28.3
2019-01-13T15:54:02.016Z,28.2
2019-01-13T15:56:59.205Z,28.2
2019-01-13T16:02:53.424Z,28.2
2019-01-13T16:05:50.166Z,28.2
2019-01-13T16:08:47.784Z,28.2
2019-01-13T16:11:44.067Z,28.2
2019-01-13T16:14:41.269Z,28.2
2019-01-13T16:17:38.063Z,28.2
2019-01-13T16:20:35.249Z,28.2
2019-01-13T16:26:29.702Z,28.1
2019-01-13T16:32:23.665Z,28.1
2019-01-13T16:35:20.113Z,28
2019-01-13T16:41:14.732Z,28
2019-01-13T16:44:11.109Z,28.1
2019-01-13T16:47:08.311Z,28
2019-01-13T16:50:05.109Z,28
2019-01-13T16:53:05.868Z,28
2019-01-13T17:01:53.738Z,28
2019-01-13T17:04:50.694Z,28
2019-01-13T17:07:47.833Z,28
2019-01-13T17:10:44.706Z,28
2019-01-13T17:13:41.393Z,28
2019-01-13T17:16:38.183Z,27.9
2019-01-13T17:19:35.304Z,28
2019-01-13T17:22:32.158Z,27.9
2019-01-13T17:25:29.739Z,27.9
2019-01-13T17:28:26.199Z,27.9
2019-01-13T17:34:20.388Z,27.9
2019-01-13T17:37:17.156Z,27.8
2019-01-13T17:40:14.423Z,27.8
2019-01-13T17:43:11.187Z,27.8
2019-01-13T17:46:08.742Z,27.8
2019-01-13T17:49:05.186Z,27.8
2019-01-13T17:52:02.402Z,27.8
2019-01-13T17:57:56.397Z,27.8
2019-01-13T18:00:53.212Z,27.8
2019-01-13T18:03:50.390Z,27.7
2019-01-13T18:06:47.204Z,27.7
2019-01-13T18:09:44.552Z,27.7
2019-01-13T18:12:41.237Z,27.7
2019-01-13T18:18:35.881Z,27.7
2019-01-13T18:21:32.682Z,27.7
2019-01-13T18:24:29.804Z,27.6
2019-01-13T18:27:26.260Z,27.7
2019-01-13T18:30:23.416Z,27.7
2019-01-13T18:33:20.288Z,27.7
2019-01-13T18:36:17.581Z,27.7
2019-01-13T18:39:14.283Z,27.6
2019-01-13T18:45:08.873Z,27.7
2019-01-13T18:51:02.552Z,27.7
2019-01-13T18:53:59.273Z,27.7
2019-01-13T18:56:56.438Z,27.7
2019-01-13T18:59:53.313Z,27.7
2019-01-13T19:05:47.491Z,27.7
2019-01-13T19:08:44.312Z,27.7
2019-01-13T19:14:39.031Z,27.7
2019-01-13T19:17:35.310Z,27.7
2019-01-13T19:23:29.581Z,27.7
2019-01-13T19:26:26.335Z,27.7
2019-01-13T19:29:23.498Z,27.6
2019-01-13T19:32:20.403Z,27.6
2019-01-13T19:35:17.576Z,27.6
2019-01-13T19:44:09.054Z,27.6
2019-01-13T19:47:05.347Z,27.6
2019-01-13T19:50:02.905Z,27.5
2019-01-13T19:53:00.466Z,27.5
2019-01-13T19:58:53.527Z,27.4
2019-01-13T20:04:47.778Z,27.4
2019-01-13T20:13:39.029Z,27.4
2019-01-13T20:16:35.861Z,27.3
2019-01-13T20:28:23.941Z,27.2
2019-01-13T20:31:20.455Z,27.2
2019-01-13T20:34:17.694Z,27.2
2019-01-13T20:37:14.600Z,27.2
2019-01-13T20:49:03.005Z,27.2
2019-01-13T20:54:56.927Z,27.2
2019-01-13T20:57:53.770Z,27.2
2019-01-13T21:03:47.867Z,27.2
2019-01-13T21:12:39.386Z,27.2
2019-01-13T21:15:35.949Z,27.2
2019-01-13T21:18:33.017Z,27.2
2019-01-13T21:24:26.951Z,27.2
2019-01-13T21:27:23.579Z,27.2
2019-01-13T21:30:21.016Z,27.2
2019-01-13T21:36:15.147Z,27.2
2019-01-13T21:39:11.741Z,27.2
2019-01-13T21:42:09.062Z,27.2
2019-01-13T21:45:05.953Z,27.2
2019-01-13T21:48:02.735Z,27.2
2019-01-13T21:51:00.146Z,27.2
2019-01-13T21:56:53.937Z,27.3
2019-01-13T22:02:48.459Z,27.3
2019-01-13T22:05:44.980Z,27.2
2019-01-13T22:08:42.437Z,27.2
2019-01-13T22:11:39.171Z,27.2
2019-01-13T22:20:29.980Z,27.2
2019-01-13T22:23:26.604Z,27.2
2019-01-13T22:29:21.403Z,27.2
2019-01-13T22:32:18.314Z,27.2
2019-01-13T22:41:09.388Z,27.2
2019-01-13T22:44:06.115Z,27.2
2019-01-13T22:47:02.756Z,27.2
2019-01-13T22:50:00.036Z,27.3
2019-01-13T22:52:56.769Z,27.3
2019-01-13T22:55:53.596Z,27.3
2019-01-13T22:58:51.323Z,27.3
2019-01-13T23:01:48.035Z,27.3
2019-01-13T23:04:44.932Z,27.3
2019-01-13T23:07:41.708Z,27.3
2019-01-13T23:10:39.273Z,27.3
2019-01-13T23:16:32.794Z,27.2
2019-01-13T23:19:30.123Z,27.2
2019-01-13T23:25:24.668Z,27.2
2019-01-13T23:28:21.070Z,27.2
2019-01-13T23:37:11.894Z,27.2
2019-01-13T23:40:08.666Z,27.2
2019-01-13T23:46:02.993Z,27.2
2019-01-13T23:48:59.705Z,27.2
2019-01-13T23:51:57.056Z,27.2
2019-01-13T23:54:53.684Z,27.2
